Time;durP1;ratioP1;P1;durP2;ratioP2;P2;SDS_P1;SDS_P2;PMS_P1;PMS_P2;Temp;Humidity;BMP_temperature;BMP_pressure;BME280_temperature;BME280_humidity;BME280_pressure;Samples;Min_cycle;Max_cycle;Signal;HPM_P1;HPM_P2
2022/04/04 00:00:56;;;;;;;5.90;3.10;;;3.90;99.90;;;;;;5111571;28;20096;-62
2022/04/04 00:03:21;;;;;;;6.45;3.00;;;3.90;99.90;;;;;;5110930;28;20104;-62
2022/04/04 00:05:48;;;;;;;6.00;3.00;;;4.00;99.90;;;;;;5093082;28;20055;-62
2022/04/04 00:08:14;;;;;;;6.75;3.17;;;4.10;99.90;;;;;;5110841;28;20103;-62
2022/04/04 00:10:40;;;;;;;10.68;3.72;;;3.90;99.90;;;;;;5112001;28;20180;-63
2022/04/04 00:13:06;;;;;;;5.18;3.10;;;3.90;99.90;;;;;;5097081;28;20047;-70
2022/04/04 00:15:32;;;;;;;6.28;3.47;;;3.90;99.90;;;;;;5115667;28;20039;-61
2022/04/04 00:18:08;;;;;;;6.00;2.95;;;3.80;99.90;;;;;;5115299;28;20058;-62
2022/04/04 00:20:34;;;;;;;7.75;3.75;;;3.90;99.90;;;;;;5115412;28;20058;-62
2022/04/04 00:23:01;;;;;;;7.47;3.50;;;3.90;99.90;;;;;;5115072;28;20073;-61
2022/04/04 00:25:27;;;;;;;4.90;3.05;;;3.90;99.90;;;;;;5114704;28;20049;-61
2022/04/04 00:27:52;;;;;;;4.13;2.88;;;3.80;99.90;;;;;;5096912;28;20498;-61
2022/04/04 00:30:18;;;;;;;6.82;3.10;;;3.90;99.90;;;;;;5079719;28;20385;-62
2022/04/04 00:32:44;;;;;;;5.65;3.03;;;3.90;99.90;;;;;;5114850;28;20090;-61
2022/04/04 00:35:10;;;;;;;6.43;3.08;;;3.90;99.90;;;;;;5114922;28;20161;-70
2022/04/04 00:37:39;;;;;;;7.32;3.15;;;3.90;99.90;;;;;;5115076;28;20089;-64
2022/04/04 00:40:07;;;;;;;8.05;3.17;;;3.90;99.90;;;;;;5096603;28;20130;-62
2022/04/04 00:42:33;;;;;;;7.45;3.30;;;3.90;99.90;;;;;;5096235;28;20419;-62
2022/04/04 00:45:00;;;;;;;5.05;3.08;;;3.90;99.90;;;;;;5114784;28;20054;-61
2022/04/04 00:47:26;;;;;;;4.38;2.75;;;3.90;99.90;;;;;;5096120;28;20401;-65
2022/04/04 00:49:51;;;;;;;7.25;2.90;;;3.90;99.90;;;;;;5096569;28;20044;-62
2022/04/04 00:52:18;;;;;;;6.20;3.40;;;4.00;99.90;;;;;;5114193;28;20047;-62
2022/04/04 00:54:45;;;;;;;6.30;3.25;;;3.90;99.90;;;;;;5114611;28;20051;-62
2022/04/04 00:57:11;;;;;;;8.15;3.05;;;3.90;99.90;;;;;;5114011;28;20515;-72
2022/04/04 00:59:37;;;;;;;5.97;3.30;;;3.90;99.90;;;;;;5114014;28;20079;-62
2022/04/04 01:02:05;;;;;;;6.07;3.83;;;4.00;99.90;;;;;;5096627;28;20055;-64
2022/04/04 01:04:30;;;;;;;5.53;3.13;;;3.90;99.90;;;;;;5114214;28;20480;-61
2022/04/04 01:07:01;;;;;;;9.52;3.42;;;3.90;99.90;;;;;;5096489;28;20062;-63
2022/04/04 01:09:27;;;;;;;5.25;3.17;;;3.90;99.90;;;;;;5114132;28;20560;-64
2022/04/04 01:12:08;;;;;;;6.25;3.38;;;4.00;99.90;;;;;;5114363;28;20070;-62
2022/04/04 01:14:39;;;;;;;9.57;4.68;;;4.00;99.90;;;;;;5113922;28;20061;-62
2022/04/04 01:17:06;;;;;;;6.43;3.90;;;4.00;99.90;;;;;;5114398;28;20054;-62
2022/04/04 01:19:33;;;;;;;9.07;4.60;;;4.00;99.90;;;;;;5078876;28;20066;-63
2022/04/04 01:22:00;;;;;;;8.35;4.07;;;4.20;99.90;;;;;;5113085;28;20277;-62
2022/04/04 01:24:26;;;;;;;7.57;4.50;;;4.00;99.90;;;;;;5062044;28;20052;-62
2022/04/04 01:26:53;;;;;;;9.85;4.90;;;4.00;99.90;;;;;;5114145;28;20059;-62
2022/04/04 01:29:20;;;;;;;7.85;4.82;;;4.20;99.90;;;;;;5113629;28;20047;-63
2022/04/04 01:31:50;;;;;;;7.20;4.97;;;4.10;99.90;;;;;;5114005;28;20039;-62
2022/04/04 01:34:20;;;;;;;10.43;5.32;;;4.10;99.90;;;;;;5114028;28;20048;-71
2022/04/04 01:36:46;;;;;;;8.20;5.22;;;4.10;99.90;;;;;;5113962;28;20448;-64
2022/04/04 01:39:12;;;;;;;8.43;5.55;;;4.10;99.90;;;;;;5078806;28;20131;-62
2022/04/04 01:41:38;;;;;;;10.55;5.60;;;4.20;99.90;;;;;;5113437;28;20288;-61
2022/04/04 01:44:04;;;;;;;9.40;5.53;;;4.20;99.90;;;;;;5114127;28;20048;-61
2022/04/04 01:46:30;;;;;;;10.35;6.35;;;4.20;99.90;;;;;;5113108;28;20086;-62
2022/04/04 01:48:58;;;;;;;10.05;6.65;;;4.20;99.90;;;;;;5095470;28;20079;-61
2022/04/04 01:51:25;;;;;;;13.85;8.00;;;4.20;99.90;;;;;;5113043;28;20393;-61
2022/04/04 01:53:51;;;;;;;12.25;6.47;;;4.20;99.90;;;;;;5113578;28;20473;-61
2022/04/04 01:56:17;;;;;;;10.68;6.88;;;4.20;99.90;;;;;;5113348;28;20301;-64
2022/04/04 01:58:44;;;;;;;15.10;8.35;;;4.30;99.90;;;;;;5113014;28;20047;-61
2022/04/04 02:01:10;;;;;;;11.18;6.38;;;4.30;99.90;;;;;;5113357;28;20079;-62
2022/04/04 02:03:36;;;;;;;14.05;8.43;;;4.30;99.90;;;;;;5112855;28;20047;-62
2022/04/04 02:06:03;;;;;;;14.20;8.98;;;4.30;99.90;;;;;;5112958;28;20536;-62
2022/04/04 02:08:29;;;;;;;13.20;9.50;;;4.40;99.90;;;;;;5077864;28;20059;-63
2022/04/04 02:10:55;;;;;;;15.32;9.52;;;4.30;99.90;;;;;;5094919;28;20043;-62
2022/04/04 02:13:25;;;;;;;15.07;10.77;;;4.30;99.90;;;;;;5112999;28;20035;-71
2022/04/04 02:15:52;;;;;;;14.25;9.82;;;4.40;99.90;;;;;;5113139;28;20050;-62
2022/04/04 02:18:19;;;;;;;15.20;9.75;;;4.40;99.90;;;;;;5112998;28;20036;-65
2022/04/04 02:20:45;;;;;;;14.30;9.75;;;4.40;99.90;;;;;;5112599;28;20047;-67
2022/04/04 02:23:11;;;;;;;15.07;8.75;;;4.40;99.90;;;;;;5112559;28;20059;-65
2022/04/04 02:25:37;;;;;;;11.88;9.80;;;4.40;99.90;;;;;;5112562;28;20490;-62
2022/04/04 02:28:03;;;;;;;16.45;10.27;;;4.40;99.90;;;;;;5112265;28;20040;-64
2022/04/04 02:30:29;;;;;;;12.55;8.52;;;4.40;99.90;;;;;;5112389;28;20051;-62
2022/04/04 02:32:55;;;;;;;13.48;9.35;;;4.40;99.90;;;;;;5094426;28;20093;-62
2022/04/04 02:35:21;;;;;;;14.25;10.30;;;4.40;99.90;;;;;;5111959;28;20147;-61
2022/04/04 02:37:47;;;;;;;15.88;9.85;;;4.40;99.90;;;;;;5111847;28;20044;-61
2022/04/04 02:40:13;;;;;;;14.15;8.95;;;4.40;99.90;;;;;;5112563;28;20079;-61
2022/04/04 02:42:40;;;;;;;10.50;7.65;;;4.40;99.90;;;;;;5112181;28;20043;-62
2022/04/04 02:45:06;;;;;;;15.25;9.48;;;4.40;99.90;;;;;;5112374;28;20043;-64
2022/04/04 02:47:32;;;;;;;31.02;9.73;;;4.40;99.90;;;;;;5111723;28;20047;-68
2022/04/04 02:49:57;;;;;;;12.70;8.90;;;4.40;99.90;;;;;;5094329;28;20397;-61
2022/04/04 02:52:23;;;;;;;12.88;10.07;;;4.40;99.90;;;;;;5094227;28;20135;-61
2022/04/04 02:54:49;;;;;;;14.50;10.40;;;4.40;99.90;;;;;;5111983;28;20043;-62
2022/04/04 02:57:17;;;;;;;17.90;10.63;;;4.40;99.90;;;;;;5094219;28;20462;-62
2022/04/04 02:59:44;;;;;;;15.98;8.57;;;4.40;99.90;;;;;;5111794;28;20055;-61
2022/04/04 03:02:09;;;;;;;14.68;10.80;;;4.40;99.90;;;;;;5094290;28;20047;-62
2022/04/04 03:04:35;;;;;;;10.65;8.02;;;4.50;99.90;;;;;;5111416;28;20113;-61
2022/04/04 03:07:02;;;;;;;18.17;11.07;;;4.50;99.90;;;;;;5112122;28;20054;-61
2022/04/04 03:09:27;;;;;;;13.25;10.23;;;4.50;99.90;;;;;;5093819;28;20400;-71
2022/04/04 03:11:53;;;;;;;18.92;11.50;;;4.50;99.90;;;;;;5111669;28;20043;-62
2022/04/04 03:14:19;;;;;;;16.55;10.68;;;4.50;99.90;;;;;;5112000;28;20040;-61
2022/04/04 03:16:44;;;;;;;16.70;10.43;;;4.50;99.90;;;;;;5111390;28;20059;-61
2022/04/04 03:19:10;;;;;;;20.17;11.15;;;4.60;99.90;;;;;;5111907;28;20091;-61
2022/04/04 03:21:36;;;;;;;16.20;11.35;;;4.60;99.90;;;;;;5111235;28;20035;-63
2022/04/04 03:24:02;;;;;;;13.13;9.45;;;4.50;99.90;;;;;;5111941;28;20076;-62
2022/04/04 03:26:31;;;;;;;15.15;10.35;;;4.60;99.90;;;;;;5093751;28;20113;-61
2022/04/04 03:28:57;;;;;;;15.10;9.90;;;4.60;99.90;;;;;;5111765;28;20052;-61
2022/04/04 03:31:22;;;;;;;13.32;9.57;;;4.70;99.90;;;;;;5093809;28;20522;-62
2022/04/04 03:33:48;;;;;;;14.35;9.65;;;4.70;99.90;;;;;;5111289;28;20481;-61
2022/04/04 03:36:14;;;;;;;14.40;10.73;;;4.70;99.90;;;;;;5076019;28;20279;-61
2022/04/04 03:38:40;;;;;;;15.40;10.00;;;4.70;99.90;;;;;;5093277;28;20057;-63
2022/04/04 03:41:06;;;;;;;17.15;10.63;;;4.70;99.90;;;;;;5111670;28;20050;-61
2022/04/04 03:43:31;;;;;;;20.55;11.18;;;4.80;99.90;;;;;;5093424;28;20125;-71
2022/04/04 03:45:57;;;;;;;15.23;10.43;;;4.80;99.90;;;;;;5112525;28;20058;-62
2022/04/04 03:48:23;;;;;;;17.70;11.65;;;4.70;99.90;;;;;;5097830;28;20622;-61
2022/04/04 03:50:51;;;;;;;19.88;10.77;;;4.80;99.90;;;;;;5115149;28;20385;-62
2022/04/04 03:53:17;;;;;;;22.08;11.68;;;4.80;99.90;;;;;;5097874;28;20098;-61
2022/04/04 03:55:43;;;;;;;19.70;12.02;;;4.80;99.90;;;;;;5097114;28;20481;-61
2022/04/04 03:58:10;;;;;;;16.60;11.57;;;4.80;99.90;;;;;;5115700;28;20044;-62
2022/04/04 04:00:40;;;;;;;15.63;10.10;;;4.80;99.90;;;;;;5115345;28;20054;-74
2022/04/04 04:03:07;;;;;;;15.68;11.90;;;4.80;99.90;;;;;;5115825;28;20173;-64
2022/04/04 04:05:33;;;;;;;19.00;11.85;;;4.80;99.90;;;;;;5115811;28;20051;-65
2022/04/04 04:07:59;;;;;;;17.05;10.30;;;4.80;99.90;;;;;;5115308;28;20495;-62
2022/04/04 04:10:25;;;;;;;18.20;12.07;;;4.80;99.90;;;;;;5097569;28;20039;-62
2022/04/04 04:12:51;;;;;;;18.40;12.15;;;4.70;99.90;;;;;;5080143;28;20040;-65
2022/04/04 04:15:19;;;;;;;18.27;10.75;;;4.80;99.90;;;;;;5115592;28;20127;-65
2022/04/04 04:17:46;;;;;;;21.70;12.07;;;4.70;99.90;;;;;;5115084;28;20439;-62
2022/04/04 04:20:22;;;;;;;25.40;13.95;;;4.70;99.90;;;;;;5115402;28;20469;-63
2022/04/04 04:23:08;;;;;;;19.30;12.90;;;4.70;99.90;;;;;;5098268;28;20091;-63
2022/04/04 04:25:36;;;;;;;18.55;11.95;;;4.80;99.90;;;;;;5096726;28;20070;-63
2022/04/04 04:28:04;;;;;;;23.23;13.80;;;4.80;99.90;;;;;;5114801;28;20047;-64
2022/04/04 04:30:31;;;;;;;20.35;13.10;;;4.80;99.90;;;;;;5115353;28;20051;-66
2022/04/04 04:32:58;;;;;;;22.50;13.75;;;4.80;99.90;;;;;;5096702;28;20476;-63
2022/04/04 04:35:24;;;;;;;19.52;13.23;;;4.80;99.90;;;;;;5115409;28;20040;-61
2022/04/04 04:37:50;;;;;;;20.67;12.77;;;4.80;99.90;;;;;;5114963;28;20051;-62
2022/04/04 04:40:17;;;;;;;20.25;13.10;;;4.80;99.90;;;;;;5114916;28;20096;-66
2022/04/04 04:42:44;;;;;;;25.50;13.10;;;4.80;99.90;;;;;;5096176;28;20150;-62
2022/04/04 04:45:11;;;;;;;20.40;12.85;;;4.80;99.90;;;;;;5097090;28;20382;-65
2022/04/04 04:47:37;;;;;;;21.60;13.52;;;4.80;99.90;;;;;;5114775;28;20481;-65
2022/04/04 04:50:05;;;;;;;19.02;12.02;;;4.80;99.90;;;;;;5114629;28;20052;-63
2022/04/04 04:52:31;;;;;;;21.83;11.90;;;4.80;99.90;;;;;;5080012;28;20050;-62
2022/04/04 04:54:57;;;;;;;19.92;11.90;;;4.90;99.90;;;;;;5114804;28;20051;-63
2022/04/04 04:57:23;;;;;;;18.20;13.60;;;5.50;99.90;;;;;;5114388;28;20082;-63
2022/04/04 04:59:49;;;;;;;18.73;11.38;;;5.00;99.90;;;;;;5114088;28;20040;-62
2022/04/04 05:02:15;;;;;;;18.63;11.63;;;4.90;99.90;;;;;;5114687;28;20042;-63
2022/04/04 05:04:41;;;;;;;15.65;11.27;;;4.90;99.90;;;;;;5096289;28;20134;-75
2022/04/04 05:07:08;;;;;;;19.92;13.23;;;4.90;99.90;;;;;;5096352;28;20142;-67
2022/04/04 05:09:36;;;;;;;15.73;10.88;;;4.90;99.90;;;;;;5079308;28;20583;-65
2022/04/04 05:12:02;;;;;;;20.10;13.40;;;4.90;99.90;;;;;;5078911;28;20162;-64
2022/04/04 05:14:28;;;;;;;19.85;10.82;;;4.90;99.90;;;;;;5114154;28;20561;-63
2022/04/04 05:16:54;;;;;;;16.95;11.57;;;4.90;99.90;;;;;;5113767;28;20123;-63
2022/04/04 05:19:22;;;;;;;15.60;9.18;;;4.80;99.90;;;;;;5096221;28;20430;-62
2022/04/04 05:21:49;;;;;;;16.50;9.80;;;4.90;99.90;;;;;;5095350;28;20047;-63
2022/04/04 05:24:15;;;;;;;15.07;9.90;;;4.90;99.90;;;;;;5096004;28;20117;-62
2022/04/04 05:26:41;;;;;;;19.80;9.90;;;4.90;99.90;;;;;;5114075;28;20061;-62
2022/04/04 05:29:07;;;;;;;16.40;9.90;;;4.90;99.90;;;;;;5113679;28;20090;-62
2022/04/04 05:31:34;;;;;;;19.65;10.60;;;4.90;99.90;;;;;;5113739;28;20035;-62
2022/04/04 05:34:07;;;;;;;14.60;8.38;;;4.90;99.90;;;;;;5113328;28;20044;-62
2022/04/04 05:36:33;;;;;;;14.30;8.13;;;4.90;99.90;;;;;;5113770;28;20079;-61
2022/04/04 05:38:59;;;;;;;13.70;9.75;;;4.90;99.90;;;;;;5095191;28;20116;-61
2022/04/04 05:41:25;;;;;;;14.25;9.07;;;4.90;99.90;;;;;;5113720;28;20085;-66
2022/04/04 05:43:50;;;;;;;14.85;9.63;;;4.90;99.90;;;;;;5095026;28;20050;-62
2022/04/04 05:46:17;;;;;;;15.10;9.15;;;4.90;99.90;;;;;;5078807;28;20130;-62
2022/04/04 05:48:43;;;;;;;13.70;9.38;;;4.90;99.90;;;;;;5113301;28;20159;-65
2022/04/04 05:51:10;;;;;;;14.15;7.65;;;5.00;99.90;;;;;;5095055;28;20116;-62
2022/04/04 05:53:35;;;;;;;15.02;8.60;;;5.20;99.90;;;;;;5113394;28;20043;-61
2022/04/04 05:56:02;;;;;;;13.73;7.30;;;5.00;99.90;;;;;;5112998;28;20077;-61
2022/04/04 05:58:28;;;;;;;11.43;7.47;;;4.90;99.90;;;;;;5113174;28;20136;-61
2022/04/04 06:00:54;;;;;;;10.77;7.03;;;4.90;99.90;;;;;;5112855;28;20048;-62
2022/04/04 06:03:20;;;;;;;12.32;7.80;;;4.90;99.90;;;;;;5113249;28;20047;-61
2022/04/04 06:05:49;;;;;;;12.65;6.50;;;4.80;99.90;;;;;;5113229;28;20079;-61
2022/04/04 06:08:16;;;;;;;11.23;6.15;;;4.80;99.90;;;;;;5112126;28;20120;-61
2022/04/04 06:10:45;;;;;;;11.35;6.00;;;4.80;99.90;;;;;;5113032;28;20457;-63
2022/04/04 06:13:16;;;;;;;8.85;5.28;;;4.80;99.90;;;;;;5112090;28;20036;-61
2022/04/04 06:15:42;;;;;;;8.13;4.82;;;4.80;99.90;;;;;;5112325;28;20044;-60
2022/04/04 06:18:13;;;;;;;10.98;4.50;;;4.70;99.90;;;;;;5112219;28;20043;-61
2022/04/04 06:20:39;;;;;;;7.78;5.05;;;4.70;99.90;;;;;;5112892;28;20459;-61
2022/04/04 06:23:05;;;;;;;6.22;3.55;;;4.70;99.90;;;;;;5093677;28;20558;-61
2022/04/04 06:25:31;;;;;;;6.93;4.40;;;4.60;99.90;;;;;;5112796;28;20055;-63
2022/04/04 06:27:58;;;;;;;6.38;3.75;;;4.60;99.90;;;;;;5112436;28;20040;-61
2022/04/04 06:30:24;;;;;;;10.60;4.00;;;4.50;99.90;;;;;;5112562;28;20108;-61
2022/04/04 06:32:49;;;;;;;6.15;4.00;;;4.60;99.90;;;;;;5094166;28;20051;-62
2022/04/04 06:35:16;;;;;;;9.10;4.25;;;4.60;99.90;;;;;;5111986;28;20078;-61
2022/04/04 06:37:43;;;;;;;7.40;3.63;;;4.60;99.90;;;;;;5112368;28;20051;-61
2022/04/04 06:40:10;;;;;;;9.18;3.80;;;4.60;99.90;;;;;;5112068;28;20134;-61
2022/04/04 06:42:40;;;;;;;8.55;4.05;;;4.60;99.90;;;;;;5112380;28;20040;-61
2022/04/04 06:45:07;;;;;;;10.85;4.20;;;4.60;99.90;;;;;;5111565;28;20384;-65
2022/04/04 06:47:33;;;;;;;8.75;4.38;;;4.60;99.90;;;;;;5112208;28;20067;-63
2022/04/04 06:50:00;;;;;;;8.95;3.70;;;4.60;99.90;;;;;;5111718;28;20455;-64
2022/04/04 06:52:27;;;;;;;5.32;3.08;;;4.60;99.90;;;;;;5112225;28;20063;-65
2022/04/04 06:54:54;;;;;;;7.80;3.90;;;4.60;99.90;;;;;;5093851;28;20123;-64
2022/04/04 06:57:21;;;;;;;8.45;3.83;;;4.60;99.90;;;;;;5093666;28;20075;-65
2022/04/04 06:59:47;;;;;;;9.57;3.42;;;4.60;99.90;;;;;;5112279;28;20050;-64
2022/04/04 07:02:13;;;;;;;9.15;4.15;;;4.70;99.90;;;;;;5111656;28;20043;-64
2022/04/04 07:04:40;;;;;;;6.38;4.30;;;4.70;99.90;;;;;;5077153;28;20071;-64
2022/04/04 07:07:07;;;;;;;8.52;4.15;;;4.70;99.90;;;;;;5111665;28;20480;-63
2022/04/04 07:09:33;;;;;;;7.20;4.40;;;4.70;99.90;;;;;;5112078;28;20039;-63
2022/04/04 07:11:59;;;;;;;9.25;3.75;;;4.80;99.90;;;;;;5093641;28;20043;-75
2022/04/04 07:14:25;;;;;;;6.78;4.25;;;4.80;99.90;;;;;;5093494;28;20062;-62
2022/04/04 07:16:53;;;;;;;9.50;5.30;;;4.80;99.90;;;;;;5093964;28;20392;-66
2022/04/04 07:19:23;;;;;;;8.90;5.25;;;4.80;99.90;;;;;;5076400;28;20087;-64
2022/04/04 07:21:52;;;;;;;8.85;5.13;;;4.80;99.90;;;;;;5111477;28;20397;-66
2022/04/04 07:24:19;;;;;;;9.88;6.55;;;4.90;99.90;;;;;;5111190;28;20093;-68
2022/04/04 07:26:48;;;;;;;9.10;5.13;;;4.90;99.90;;;;;;5111715;28;20119;-67
2022/04/04 07:29:14;;;;;;;9.45;4.93;;;4.90;99.90;;;;;;5111177;28;20048;-63
2022/04/04 07:31:40;;;;;;;10.23;7.00;;;5.00;99.90;;;;;;5111275;28;20047;-63
2022/04/04 07:34:06;;;;;;;12.05;6.20;;;5.00;99.90;;;;;;5110733;28;20097;-67
2022/04/04 07:36:31;;;;;;;11.80;6.82;;;5.10;99.90;;;;;;5093505;28;20047;-65
2022/04/04 07:38:57;;;;;;;11.30;6.88;;;5.10;99.90;;;;;;5111490;28;20047;-64
2022/04/04 07:41:23;;;;;;;12.13;6.63;;;5.10;99.90;;;;;;5111166;28;20035;-64
2022/04/04 07:43:48;;;;;;;11.90;6.57;;;5.10;99.90;;;;;;5111411;28;20086;-65
2022/04/04 07:46:14;;;;;;;15.85;6.88;;;5.10;99.90;;;;;;5092531;28;20503;-62
2022/04/04 07:48:42;;;;;;;11.35;7.10;;;5.20;99.90;;;;;;5111594;28;20048;-64
2022/04/04 07:51:08;;;;;;;11.20;7.30;;;5.20;99.90;;;;;;5092988;28;20146;-64
2022/04/04 07:53:34;;;;;;;9.73;7.32;;;5.20;99.90;;;;;;5092435;28;20051;-66
2022/04/04 07:56:00;;;;;;;14.40;7.30;;;5.20;99.90;;;;;;5110961;28;20044;-64
2022/04/04 07:58:26;;;;;;;12.50;8.48;;;5.30;99.90;;;;;;5110719;28;20157;-66
2022/04/04 08:00:52;;;;;;;10.10;6.53;;;5.30;99.90;;;;;;5111399;28;20470;-70
2022/04/04 08:03:19;;;;;;;15.45;7.38;;;5.40;99.90;;;;;;5092225;28;20499;-64
2022/04/04 08:05:45;;;;;;;9.98;6.30;;;5.40;99.90;;;;;;5111119;28;20096;-64
2022/04/04 08:08:11;;;;;;;14.10;7.90;;;5.40;99.90;;;;;;5110609;28;20044;-66
2022/04/04 08:10:37;;;;;;;11.07;8.23;;;5.40;99.90;;;;;;5092493;28;20204;-68
2022/04/04 08:13:03;;;;;;;10.60;6.07;;;5.50;99.90;;;;;;5110866;28;20050;-64
2022/04/04 08:15:29;;;;;;;11.88;6.07;;;5.50;99.90;;;;;;5092170;28;20040;-63
2022/04/04 08:17:54;;;;;;;9.35;6.45;;;5.50;99.90;;;;;;5111108;28;20054;-64
2022/04/04 08:20:21;;;;;;;10.25;6.10;;;5.50;99.90;;;;;;5110623;28;20043;-64
2022/04/04 08:22:47;;;;;;;11.75;6.20;;;5.50;99.90;;;;;;5089108;28;20148;-63
2022/04/04 08:25:15;;;;;;;10.07;6.95;;;5.60;99.90;;;;;;5090113;28;20040;-61
2022/04/04 08:27:43;;;;;;;9.52;5.10;;;5.60;99.90;;;;;;5090624;28;20055;-65
2022/04/04 08:30:10;;;;;;;12.05;5.18;;;5.60;99.90;;;;;;5090297;28;20512;-67
2022/04/04 08:32:37;;;;;;;7.85;4.40;;;5.60;99.90;;;;;;5091229;28;20091;-63
2022/04/04 08:35:08;;;;;;;11.43;5.70;;;5.70;99.90;;;;;;5094353;28;20082;-63
2022/04/04 08:37:35;;;;;;;11.10;5.20;;;5.70;99.90;;;;;;5094336;28;20081;-64
2022/04/04 08:40:02;;;;;;;9.05;5.10;;;5.70;99.90;;;;;;5093957;28;20044;-63
2022/04/04 08:42:29;;;;;;;8.40;4.65;;;5.70;99.90;;;;;;5093990;28;20040;-63
2022/04/04 08:44:59;;;;;;;6.88;3.92;;;5.70;99.90;;;;;;5094042;28;20353;-63
2022/04/04 08:47:27;;;;;;;7.07;3.53;;;5.80;99.90;;;;;;5093721;28;20440;-63
2022/04/04 08:49:54;;;;;;;5.60;3.92;;;5.80;99.90;;;;;;5093955;28;20600;-65
2022/04/04 08:52:21;;;;;;;5.15;3.22;;;5.80;99.90;;;;;;5093660;28;20055;-66
2022/04/04 08:54:47;;;;;;;7.45;3.80;;;5.80;99.90;;;;;;5093683;28;20497;-61
2022/04/04 08:57:13;;;;;;;6.75;3.85;;;5.90;99.90;;;;;;5092132;28;20363;-66
2022/04/04 08:59:39;;;;;;;8.25;3.47;;;6.00;99.90;;;;;;5093269;28;20050;-63
2022/04/04 09:02:06;;;;;;;5.07;3.65;;;6.00;99.90;;;;;;5091929;28;20485;-63
2022/04/04 09:04:33;;;;;;;5.85;3.45;;;6.00;99.90;;;;;;5093298;28;20047;-66
2022/04/04 09:07:05;;;;;;;6.00;3.15;;;6.00;99.90;;;;;;5076134;28;20404;-62
2022/04/04 09:09:38;;;;;;;4.68;2.55;;;6.00;99.90;;;;;;5093262;28;20047;-62
2022/04/04 09:12:06;;;;;;;8.88;3.53;;;6.20;99.90;;;;;;5093699;28;20499;-63
2022/04/04 09:14:36;;;;;;;6.10;3.30;;;6.10;99.90;;;;;;5093299;28;20485;-65
2022/04/04 09:17:02;;;;;;;3.75;2.28;;;6.10;99.90;;;;;;5093947;28;20051;-64
2022/04/04 09:19:29;;;;;;;4.30;2.80;;;6.10;99.90;;;;;;5093525;28;20044;-62
2022/04/04 09:21:55;;;;;;;6.53;3.67;;;6.10;99.90;;;;;;5096752;28;20055;-63
2022/04/04 09:24:21;;;;;;;6.07;3.00;;;6.10;99.90;;;;;;5113587;28;20074;-62
2022/04/04 09:26:48;;;;;;;7.65;3.65;;;6.20;99.90;;;;;;5079025;28;20051;-63
2022/04/04 09:29:21;;;;;;;8.40;2.97;;;6.10;99.90;;;;;;5095844;28;20093;-65
2022/04/04 09:32:05;;;;;;;6.43;2.88;;;6.20;99.90;;;;;;5114197;28;20066;-63
2022/04/04 09:34:49;;;;;;;6.82;3.22;;;6.10;99.90;;;;;;5112981;28;20048;-61
2022/04/04 09:37:16;;;;;;;4.90;2.90;;;6.20;99.90;;;;;;5095109;28;20066;-61
2022/04/04 09:39:41;;;;;;;7.32;3.17;;;6.20;99.90;;;;;;5113471;28;20047;-61
2022/04/04 09:42:16;;;;;;;6.55;3.17;;;6.20;99.90;;;;;;5113521;28;20406;-61
2022/04/04 09:44:55;;;;;;;6.68;2.95;;;6.20;99.90;;;;;;5111767;28;20052;-65
2022/04/04 09:47:21;;;;;;;4.72;3.00;;;6.30;99.90;;;;;;5113035;28;20058;-65
2022/04/04 09:49:46;;;;;;;7.88;3.00;;;6.30;99.90;;;;;;5112668;28;20055;-61
2022/04/04 09:52:14;;;;;;;5.82;2.78;;;6.40;99.90;;;;;;5113479;28;20051;-62
2022/04/04 09:54:42;;;;;;;3.72;2.42;;;6.40;99.90;;;;;;5112751;28;20492;-62
2022/04/04 09:57:20;;;;;;;5.00;2.78;;;6.40;99.90;;;;;;5113426;28;20047;-61
2022/04/04 09:59:47;;;;;;;5.28;2.83;;;6.50;99.90;;;;;;5113753;28;20043;-66
2022/04/04 10:02:13;;;;;;;4.90;2.55;;;6.50;99.90;;;;;;5113408;28;20092;-61
2022/04/04 10:04:43;;;;;;;5.50;2.70;;;6.40;99.90;;;;;;5113056;28;20290;-63
2022/04/04 10:07:10;;;;;;;5.75;2.45;;;6.40;99.90;;;;;;5109026;28;20054;-61
2022/04/04 10:09:36;;;;;;;5.00;2.40;;;6.50;99.90;;;;;;5111797;28;20062;-64
2022/04/04 10:12:03;;;;;;;4.80;2.60;;;6.50;99.90;;;;;;5093202;28;20036;-63
2022/04/04 10:14:31;;;;;;;4.95;2.35;;;6.50;99.90;;;;;;5112223;28;20101;-61
2022/04/04 10:16:57;;;;;;;4.15;2.33;;;6.50;99.90;;;;;;5112348;28;20497;-62
2022/04/04 10:19:25;;;;;;;4.60;2.17;;;6.50;99.90;;;;;;5112449;28;20120;-71
2022/04/04 10:21:51;;;;;;;3.75;2.53;;;6.60;99.90;;;;;;5112339;28;20079;-65
2022/04/04 10:24:18;;;;;;;5.40;2.15;;;6.60;99.90;;;;;;5112805;28;20086;-61
2022/04/04 10:26:47;;;;;;;4.93;3.00;;;6.60;99.90;;;;;;5094215;28;20040;-61
2022/04/04 10:29:20;;;;;;;5.50;2.20;;;6.60;99.90;;;;;;5094579;28;20052;-62
2022/04/04 10:31:59;;;;;;;4.55;2.30;;;6.60;99.90;;;;;;5093628;28;20104;-62
2022/04/04 10:34:25;;;;;;;4.15;2.55;;;6.70;99.90;;;;;;5093732;28;20043;-64
2022/04/04 10:36:55;;;;;;;4.32;2.22;;;6.70;99.90;;;;;;5092826;28;20039;-61
2022/04/04 10:39:45;;;;;;;5.35;2.65;;;6.60;99.90;;;;;;5094237;28;20043;-62
2022/04/04 10:42:41;;;;;;;4.43;2.05;;;6.60;99.90;;;;;;5112395;28;20101;-62
2022/04/04 10:45:07;;;;;;;;;;;6.70;99.90;;;;;;5094444;28;20051;-62
2022/04/04 10:47:36;;;;;;;4.35;2.55;;;6.70;99.90;;;;;;5112083;28;20326;-62
2022/04/04 10:50:22;;;;;;;6.28;2.47;;;6.70;99.90;;;;;;5111725;28;20120;-61
2022/04/04 10:52:49;;;;;;;4.80;2.15;;;6.70;99.90;;;;;;5076674;28;20038;-62
2022/04/04 10:55:24;;;;;;;4.93;2.30;;;6.70;99.90;;;;;;5111880;28;20048;-61
2022/04/04 10:57:52;;;;;;;3.13;1.90;;;6.80;99.90;;;;;;5111647;28;20171;-62
2022/04/04 11:00:32;;;;;;;2.60;1.80;;;6.80;99.90;;;;;;5094000;28;20113;-62
2022/04/04 11:03:00;;;;;;;3.83;1.88;;;6.80;99.90;;;;;;5112032;28;20040;-66
2022/04/04 11:08:13;;;;;;;3.88;1.75;;;6.90;99.90;;;;;;5093809;28;20077;-62
2022/04/04 11:10:47;;;;;;;3.30;1.92;;;6.90;99.90;;;;;;5111295;28;20492;-62
2022/04/04 11:13:16;;;;;;;3.70;2.08;;;6.90;99.90;;;;;;5094866;28;20370;-62
2022/04/04 11:16:01;;;;;;;3.47;1.60;;;6.90;99.90;;;;;;5093158;28;20062;-63
2022/04/04 11:18:51;;;;;;;2.75;1.85;;;7.00;99.90;;;;;;5111621;28;20517;-63
2022/04/04 11:21:52;;;;;;;4.85;1.60;;;7.00;99.90;;;;;;5111823;28;20051;-62
2022/04/04 11:24:18;;;;;;;3.75;1.67;;;7.00;99.90;;;;;;4992517;28;20073;-61
2022/04/04 11:26:47;;;;;;;4.18;1.67;;;7.00;99.90;;;;;;5074212;28;20055;-61
2022/04/04 11:29:19;;;;;;;3.42;1.75;;;7.00;99.90;;;;;;5090943;28;20493;-61
2022/04/04 11:31:48;;;;;;;3.20;1.50;;;7.00;99.90;;;;;;5090671;28;20048;-61
2022/04/04 11:34:14;;;;;;;4.22;1.42;;;7.00;99.90;;;;;;5073315;28;20047;-61
2022/04/04 11:36:41;;;;;;;3.47;1.40;;;7.10;99.90;;;;;;5090752;28;20040;-60
2022/04/04 11:39:09;;;;;;;2.63;1.40;;;7.10;99.90;;;;;;5091244;28;20058;-62
2022/04/04 11:41:46;;;;;;;2.28;1.33;;;7.10;99.90;;;;;;5089026;28;20123;-62
2022/04/04 11:44:25;;;;;;;3.08;1.58;;;7.20;99.90;;;;;;5088272;28;20052;-64
2022/04/04 11:47:08;;;;;;;4.00;1.40;;;7.20;99.90;;;;;;5070758;28;20051;-61
2022/04/04 11:49:40;;;;;;;1.52;1.20;;;7.20;99.90;;;;;;5089284;28;20084;-74
2022/04/04 11:52:07;;;;;;;2.15;1.17;;;7.20;99.90;;;;;;5088248;28;20452;-61
2022/04/04 11:54:43;;;;;;;2.25;1.20;;;7.30;99.90;;;;;;5090498;28;20127;-75
2022/04/04 11:57:10;;;;;;;1.42;1.17;;;7.30;99.90;;;;;;5090516;28;20055;-63
2022/04/04 11:59:40;;;;;;;1.73;1.30;;;7.30;99.90;;;;;;5090065;28;20115;-62
2022/04/04 12:02:09;;;;;;;1.48;1.17;;;7.40;99.90;;;;;;5070328;28;20490;-65
2022/04/04 12:04:39;;;;;;;4.55;1.75;;;7.40;99.90;;;;;;5090101;28;20060;-74
2022/04/04 12:07:06;;;;;;;2.10;1.20;;;7.30;99.90;;;;;;5091141;28;20159;-63
2022/04/04 12:09:34;;;;;;;11.02;1.90;;;7.50;99.90;;;;;;5093898;28;20040;-62
2022/04/04 12:12:07;;;;;;;1.55;1.20;;;7.40;99.90;;;;;;5075274;28;20093;-62
2022/04/04 12:14:37;;;;;;;2.65;1.30;;;7.50;99.90;;;;;;5093920;28;20105;-63
2022/04/04 12:17:04;;;;;;;1.92;1.17;;;7.50;99.90;;;;;;5092860;28;20060;-62
2022/04/04 12:19:30;;;;;;;1.95;1.10;;;7.50;99.90;;;;;;5094764;28;20047;-62
2022/04/04 12:21:57;;;;;;;1.45;1.05;;;7.60;99.90;;;;;;5094768;28;20054;-62
2022/04/04 12:27:13;;;;;;;2.28;1.20;;;7.60;99.90;;;;;;5115023;28;20086;-66
2022/04/04 12:29:44;;;;;;;1.50;1.30;;;7.70;99.90;;;;;;5096666;28;20055;-72
2022/04/04 12:32:18;;;;;;;3.22;1.58;;;7.70;99.90;;;;;;5114675;28;20047;-61
2022/04/04 12:35:06;;;;;;;1.40;1.20;;;7.70;99.90;;;;;;5114916;28;20131;-63
2022/04/04 12:37:39;;;;;;;3.63;1.25;;;7.70;99.90;;;;;;5113951;28;20036;-61
2022/04/04 12:40:25;;;;;;;3.72;1.48;;;7.70;99.90;;;;;;5114634;28;20092;-62
2022/04/04 12:42:53;;;;;;;3.08;1.40;;;7.80;99.90;;;;;;5096148;28;20079;-64
2022/04/04 12:45:20;;;;;;;2.47;1.58;;;8.20;99.90;;;;;;5113917;28;20048;-62
2022/04/04 12:47:53;;;;;;;2.40;1.40;;;7.90;99.90;;;;;;5113837;28;20043;-62
2022/04/04 12:50:21;;;;;;;2.73;1.60;;;7.80;99.90;;;;;;5096433;28;20090;-63
2022/04/04 12:52:56;;;;;;;4.32;2.05;;;7.90;99.90;;;;;;5095828;28;20055;-61
2022/04/04 12:55:22;;;;;;;1.95;1.48;;;8.00;99.90;;;;;;5114389;28;20047;-63
2022/04/04 12:57:48;;;;;;;2.55;1.60;;;8.00;99.90;;;;;;5113940;28;20081;-62
2022/04/04 13:00:25;;;;;;;2.17;1.63;;;8.00;99.90;;;;;;5096099;28;20090;-61